昆明 の空港の天気 - METARとTAF

昆明巫家餽国際空港 ( ZPPP / KMG ) - 中国 雲南省昆明市
飛行場実況気象(Metar)
観測時間07/29 09:00 CST (07/29 01:00 UTC)
風向・風速東北東 4m/s
視程10km以上
天気現象弱いしゅう雨
全天の4割程度の雲 雲底高度 610m
全天を覆う雲 雲底高度 1310m
気温17℃
湿度94%
気圧1016hPa
METARZPPP 290100Z 06004MPS 9999 -SHRA SCT020 OVC043 17/16 Q1016 NOSIG
過去の天気等 Google飛行場航空写真 Wunderground天気予報

過去48時間のMETAR

飛行場予報(TAF)
発表時間: 7/29 05:08 CST (7/28 21:08 UTC)
予報対象時間: 29日8時 CST ~ 30日8時 CST
風向・風速北東 4m/s
視程10km以上
全天の4割程度の雲 雲底高度 790m
全天の8割程度の雲 雲底高度 1010m
TAF ZPPP 282108Z 2900/2924 04004MPS 9999 SCT026 BKN033 TX21/2908Z TN16/2923Z